Time;durP1;ratioP1;P1;durP2;ratioP2;P2;SDS_P1;SDS_P2;PMS_P1;PMS_P2;Temp;Humidity;BMP_temperature;BMP_pressure;BME280_temperature;BME280_humidity;BME280_pressure;Samples;Min_cycle;Max_cycle;Signal;HPM_P1;HPM_P2
2021/07/21 00:00:53;;;;;;;5.17;4.67;;;;;23.60;101125.00;;;;2059654;28;20218;-67
2021/07/21 00:01:53;;;;;;;5.30;4.80;;;;;23.50;101126.00;;;;2059460;28;20285;-67
2021/07/21 00:02:54;;;;;;;5.50;5.00;;;;;23.50;101132.00;;;;2060904;28;20219;-68
2021/07/21 00:03:54;;;;;;;5.00;4.60;;;;;23.50;101129.00;;;;2060456;28;20657;-67
2021/07/21 00:04:55;;;;;;;4.80;4.27;;;;;23.50;101128.00;;;;2060032;28;21105;-67
2021/07/21 00:05:55;;;;;;;4.60;4.20;;;;;23.50;101137.00;;;;2062094;28;20218;-68
2021/07/21 00:06:55;;;;;;;4.80;4.40;;;;;23.50;101134.00;;;;2060005;28;20219;-67
2021/07/21 00:07:56;;;;;;;5.40;4.90;;;;;23.50;101134.00;;;;2060166;28;20212;-67
2021/07/21 00:08:57;;;;;;;5.00;4.57;;;;;23.60;101128.00;;;;2060300;28;20227;-67
2021/07/21 00:09:57;;;;;;;4.50;4.10;;;;;23.60;101130.00;;;;2059899;28;20222;-67
2021/07/21 00:13:36;;;;;;;4.90;4.40;;;;;23.60;101128.00;;;;2059655;28;20709;-67
2021/07/21 00:14:37;;;;;;;4.55;4.10;;;;;23.60;101132.00;;;;2059200;28;20229;-67
2021/07/21 00:15:40;;;;;;;6.75;4.80;;;;;23.50;101134.00;;;;2059203;28;20210;-67
2021/07/21 00:16:43;;;;;;;5.68;4.68;;;;;23.50;101138.00;;;;2057794;28;20220;-67
2021/07/21 00:17:45;;;;;;;5.68;5.18;;;;;23.60;101138.00;;;;2059468;28;20329;-67
2021/07/21 00:18:51;;;;;;;4.90;4.50;;;;;23.60;101136.00;;;;2059371;28;20226;-67
2021/07/21 00:20:09;;;;;;;5.05;4.60;;;;;23.60;101123.00;;;;2059201;28;20866;-67
2021/07/21 00:21:13;;;;;;;5.07;4.57;;;;;23.50;101130.00;;;;2067286;28;20304;-67
2021/07/21 00:22:13;;;;;;;5.47;4.53;;;;;23.50;101138.00;;;;2067093;28;20206;-67
2021/07/21 00:23:15;;;;;;;3.70;3.40;;;;;23.50;101137.00;;;;2065946;28;20223;-67
2021/07/21 00:24:15;;;;;;;4.95;3.97;;;;;23.50;101137.00;;;;2067147;28;20299;-67
2021/07/21 00:25:16;;;;;;;5.10;4.60;;;;;23.50;101137.00;;;;2067248;28;20558;-67
2021/07/21 00:26:16;;;;;;;4.93;4.43;;;;;23.50;101137.00;;;;2067977;28;20215;-67
2021/07/21 00:27:16;;;;;;;4.77;4.33;;;;;23.50;101144.00;;;;2067978;28;20215;-67
2021/07/21 00:28:18;;;;;;;5.00;4.60;;;;;23.50;101130.00;;;;2068079;28;20218;-67
2021/07/21 00:29:18;;;;;;;5.35;4.85;;;;;23.50;101130.00;;;;2067997;28;20241;-67
2021/07/21 00:30:19;;;;;;;5.10;4.60;;;;;23.60;101138.00;;;;2066580;28;20218;-67
2021/07/21 00:31:19;;;;;;;4.93;4.53;;;;;23.50;101134.00;;;;2067212;28;20218;-67
2021/07/21 00:32:19;;;;;;;4.43;4.03;;;;;23.50;101126.00;;;;2066751;28;20300;-67
2021/07/21 00:33:20;;;;;;;4.80;4.40;;;;;23.50;101130.00;;;;2070386;28;20211;-67
2021/07/21 00:34:20;;;;;;;4.77;4.27;;;;;23.50;101128.00;;;;2069287;28;20210;-67
2021/07/21 00:35:20;;;;;;;4.30;3.90;;;;;23.50;101130.00;;;;2068350;28;20249;-67
2021/07/21 00:36:21;;;;;;;4.50;4.10;;;;;23.50;101127.00;;;;2067339;28;20209;-67
2021/07/21 00:37:21;;;;;;;4.63;4.23;;;;;23.50;101125.00;;;;2067151;28;20215;-67
2021/07/21 00:38:21;;;;;;;5.10;4.70;;;;;23.50;101126.00;;;;2067211;28;20297;-67
2021/07/21 00:39:22;;;;;;;4.80;4.40;;;;;23.50;101119.00;;;;2067907;28;20670;-67
2021/07/21 00:40:23;;;;;;;4.53;4.13;;;;;23.50;101126.00;;;;2067278;28;20577;-67
2021/07/21 00:41:23;;;;;;;4.57;3.70;;;;;23.50;101122.00;;;;2067964;28;20819;-67
2021/07/21 00:42:23;;;;;;;6.70;4.50;;;;;23.50;101110.00;;;;2067644;28;20222;-67
2021/07/21 00:43:26;;;;;;;5.07;4.57;;;;;23.50;101124.00;;;;2067230;28;20959;-67
2021/07/21 00:44:26;;;;;;;4.25;3.85;;;;;23.50;101114.00;;;;2067136;28;20214;-67
2021/07/21 00:45:26;;;;;;;4.50;4.10;;;;;23.50;101122.00;;;;2063643;28;20219;-67
2021/07/21 00:46:27;;;;;;;4.40;4.00;;;;;23.50;101120.00;;;;2066507;28;20242;-67
2021/07/21 00:47:27;;;;;;;4.97;4.53;;;;;23.50;101112.00;;;;2067057;28;20211;-67
2021/07/21 00:48:27;;;;;;;4.50;4.10;;;;;23.50;101111.00;;;;2067499;28;20211;-67
2021/07/21 00:49:28;;;;;;;5.13;4.33;;;;;23.50;101115.00;;;;2066961;28;20242;-67
2021/07/21 00:50:28;;;;;;;4.90;4.50;;;;;23.50;101118.00;;;;2065915;28;20210;-67
2021/07/21 00:51:28;;;;;;;5.07;4.53;;;;;23.50;101116.00;;;;2067104;28;20305;-67
2021/07/21 00:52:28;;;;;;;4.43;4.03;;;;;23.50;101120.00;;;;2066834;28;20218;-66
2021/07/21 00:53:29;;;;;;;5.43;4.23;;;;;23.50;101110.00;;;;2066021;28;20464;-67
2021/07/21 00:54:31;;;;;;;4.73;4.30;;;;;23.50;101116.00;;;;2050213;28;20279;-67
2021/07/21 00:55:31;;;;;;;5.35;4.18;;;;;23.50;101111.00;;;;2051190;28;20208;-67
2021/07/21 00:56:32;;;;;;;5.10;4.17;;;;;23.50;101111.00;;;;2067809;28;20217;-67
2021/07/21 00:57:32;;;;;;;4.50;4.10;;;;;23.50;101106.00;;;;2059259;28;20211;-67
2021/07/21 00:58:33;;;;;;;4.37;3.97;;;;;23.50;101107.00;;;;2051194;28;20295;-67
2021/07/21 00:59:34;;;;;;;4.60;4.20;;;;;23.50;101106.00;;;;2057096;28;20215;-67
2021/07/21 01:00:35;;;;;;;4.30;3.90;;;;;23.50;101107.00;;;;2057896;28;20699;-67
2021/07/21 01:01:35;;;;;;;4.50;3.97;;;;;23.50;101110.00;;;;2066981;28;20297;-67
2021/07/21 01:02:35;;;;;;;4.37;3.97;;;;;23.50;101104.00;;;;2066962;28;20310;-67
2021/07/21 01:03:36;;;;;;;4.60;4.17;;;;;23.50;101106.00;;;;2066972;28;20273;-67
2021/07/21 01:04:37;;;;;;;4.30;3.90;;;;;23.50;101109.00;;;;2069743;28;20229;-67
2021/07/21 01:05:41;;;;;;;5.13;4.63;;;;;23.50;101110.00;;;;2066612;28;20222;-67
2021/07/21 01:06:42;;;;;;;6.22;4.05;;;;;23.50;101112.00;;;;2067927;28;20227;-67
2021/07/21 01:07:46;;;;;;;5.03;4.53;;;;;23.50;101100.00;;;;2067381;28;20313;-67
2021/07/21 01:08:48;;;;;;;4.72;4.32;;;;;23.50;101105.00;;;;2067766;28;20698;-67
2021/07/21 01:09:48;;;;;;;4.70;4.20;;;;;23.50;101109.00;;;;2067659;28;20206;-67
2021/07/21 01:10:53;;;;;;;4.73;4.33;;;;;23.50;101099.00;;;;2058523;28;20219;-67
2021/07/21 01:11:58;;;;;;;4.10;3.70;;;;;23.50;101100.00;;;;2050817;28;20319;-67
2021/07/21 01:13:06;;;;;;;4.45;4.05;;;;;23.50;101110.00;;;;2050258;28;20208;-67
2021/07/21 01:14:36;;;;;;;4.20;3.80;;;;;23.50;101102.00;;;;2044830;28;20220;-67
2021/07/21 01:16:05;;;;;;;4.38;4.00;;;;;23.50;101112.00;;;;2058507;28;20221;-67
2021/07/21 01:17:07;;;;;;;5.50;4.45;;;;;23.50;101110.00;;;;2050914;28;20274;-67
2021/07/21 01:18:10;;;;;;;4.88;4.38;;;;;23.50;101115.00;;;;2053119;28;20929;-67
2021/07/21 01:19:34;;;;;;;4.65;4.25;;;;;23.50;101109.00;;;;2058657;28;20211;-67
2021/07/21 01:20:59;;;;;;;5.07;4.30;;;;;23.50;101113.00;;;;2066030;28;20256;-67
2021/07/21 01:22:14;;;;;;;4.70;4.30;;;;;23.50;101109.00;;;;2066812;28;20228;-67
2021/07/21 01:23:29;;;;;;;4.35;3.95;;;;;23.50;101107.00;;;;2066625;28;20216;-67
2021/07/21 01:24:51;;;;;;;5.10;4.60;;;;;23.50;101137.00;;;;2058444;28;20214;-67
2021/07/21 01:26:08;;;;;;;4.50;4.10;;;;;23.50;101111.00;;;;2049951;28;20683;-68
2021/07/21 01:27:21;;;;;;;4.78;4.38;;;;;23.50;101117.00;;;;2054129;28;20556;-68
2021/07/21 01:28:22;;;;;;;5.80;4.55;;;;;23.50;101121.00;;;;2058870;28;20656;-68
2021/07/21 01:29:24;;;;;;;5.00;4.53;;;;;23.50;101113.00;;;;2050273;28;20212;-68
2021/07/21 01:30:26;;;;;;;4.90;4.43;;;;;23.50;101122.00;;;;2053976;28;20683;-67
2021/07/21 01:31:39;;;;;;;4.70;4.30;;;;;23.50;101115.00;;;;2046589;28;20220;-68
2021/07/21 01:32:41;;;;;;;4.43;4.03;;;;;23.50;101093.00;;;;2051657;28;20219;-68
2021/07/21 01:33:41;;;;;;;4.90;4.28;;;;;23.40;101109.00;;;;2049219;28;20216;-68
2021/07/21 01:34:42;;;;;;;5.00;4.50;;;;;23.40;101103.00;;;;2045008;28;20724;-68
2021/07/21 01:35:54;;;;;;;4.43;4.03;;;;;23.40;101109.00;;;;2059352;28;20222;-68
2021/07/21 01:36:54;;;;;;;3.78;3.47;;;;;23.40;101109.00;;;;2068714;28;20215;-68
2021/07/21 01:37:56;;;;;;;4.03;3.70;;;;;23.40;101112.00;;;;2050046;28;20660;-68
2021/07/21 01:39:03;;;;;;;4.32;3.92;;;;;23.50;101102.00;;;;2051131;28;20227;-68
2021/07/21 01:40:05;;;;;;;4.88;4.43;;;;;23.50;101107.00;;;;2059580;28;20284;-68
2021/07/21 01:41:15;;;;;;;4.60;4.20;;;;;23.40;101107.00;;;;2057657;28;20595;-68
2021/07/21 01:42:16;;;;;;;4.20;3.90;;;;;23.40;101110.00;;;;2059328;28;20215;-68
2021/07/21 01:43:19;;;;;;;5.00;4.33;;;;;23.40;101116.00;;;;2066798;28;20211;-68
2021/07/21 01:44:21;;;;;;;4.07;3.70;;;;;23.40;101116.00;;;;2067400;28;20748;-68
2021/07/21 01:45:21;;;;;;;4.15;3.75;;;;;23.50;101115.00;;;;2058324;28;20215;-68
2021/07/21 01:46:22;;;;;;;5.57;4.40;;;;;23.50;101115.00;;;;2050608;28;20574;-68
2021/07/21 01:47:22;;;;;;;4.70;4.30;;;;;23.50;101114.00;;;;2050510;28;20846;-68
2021/07/21 01:48:23;;;;;;;4.50;4.10;;;;;23.50;101118.00;;;;2050035;28;20296;-68
2021/07/21 01:49:26;;;;;;;4.37;3.97;;;;;23.40;101115.00;;;;2057734;28;20211;-68
2021/07/21 01:50:27;;;;;;;5.25;4.18;;;;;23.40;101114.00;;;;2048942;28;20655;-68
2021/07/21 01:51:29;;;;;;;4.63;3.93;;;;;23.40;101115.00;;;;2058588;28;20254;-68
2021/07/21 01:52:29;;;;;;;4.32;3.95;;;;;23.40;101113.00;;;;2050834;28;20591;-68
2021/07/21 01:53:31;;;;;;;4.20;3.90;;;;;23.50;101112.00;;;;2051032;28;20220;-68
2021/07/21 01:54:31;;;;;;;4.05;3.65;;;;;23.40;101103.00;;;;2058790;28;20246;-68
2021/07/21 01:55:32;;;;;;;4.33;4.00;;;;;23.40;101104.00;;;;2050279;28;20611;-68
2021/07/21 01:56:33;;;;;;;4.47;4.07;;;;;23.40;101107.00;;;;2046339;28;20240;-68
2021/07/21 01:57:33;;;;;;;4.17;3.77;;;;;23.50;101113.00;;;;2054525;28;20222;-68
2021/07/21 01:58:34;;;;;;;4.03;3.63;;;;;23.40;101119.00;;;;2054400;28;20211;-68
2021/07/21 01:59:34;;;;;;;4.20;3.90;;;;;23.40;101124.00;;;;2046228;28;20212;-68
2021/07/21 02:00:35;;;;;;;4.33;3.93;;;;;23.40;101116.00;;;;2058224;28;20859;-68
2021/07/21 02:01:36;;;;;;;5.07;4.57;;;;;23.40;101143.00;;;;2067339;28;20215;-68
2021/07/21 02:02:36;;;;;;;3.97;3.67;;;;;23.40;101119.00;;;;2067374;28;20229;-68
2021/07/21 02:03:38;;;;;;;4.93;4.40;;;;;23.40;101119.00;;;;2058005;28;21104;-68
2021/07/21 02:04:39;;;;;;;4.30;3.90;;;;;23.40;101114.00;;;;2046736;28;20220;-68
2021/07/21 02:05:39;;;;;;;4.27;3.87;;;;;23.40;101118.00;;;;2052709;28;20714;-69
2021/07/21 02:06:39;;;;;;;4.77;4.37;;;;;23.40;101111.00;;;;2060254;28;20742;-68
2021/07/21 02:07:43;;;;;;;4.37;3.97;;;;;23.40;101112.00;;;;2058353;28;20710;-68
2021/07/21 02:08:44;;;;;;;4.35;3.97;;;;;23.40;101110.00;;;;2047006;28;20220;-68
2021/07/21 02:09:46;;;;;;;5.77;4.37;;;;;23.40;101114.00;;;;2050512;28;20219;-68
2021/07/21 02:10:46;;;;;;;4.13;3.70;;;;;23.40;101112.00;;;;2050043;28;20216;-68
2021/07/21 02:11:46;;;;;;;4.93;4.23;;;;;23.40;101116.00;;;;2049844;28;20215;-68
2021/07/21 02:12:49;;;;;;;4.53;4.13;;;;;23.40;101114.00;;;;2043569;29;20661;-68
2021/07/21 02:13:50;;;;;;;3.53;3.22;;;;;23.40;101122.00;;;;2035450;28;20227;-68
2021/07/21 02:14:50;;;;;;;4.50;3.63;;;;;23.40;101117.00;;;;2042729;29;20220;-68
2021/07/21 02:15:51;;;;;;;4.80;4.40;;;;;23.40;101115.00;;;;2041733;29;20302;-68
2021/07/21 02:16:51;;;;;;;4.50;4.10;;;;;23.40;101121.00;;;;2049319;28;20286;-68
2021/07/21 02:17:53;;;;;;;4.00;3.70;;;;;23.40;101128.00;;;;2042086;29;20212;-68
2021/07/21 02:18:54;;;;;;;4.10;3.70;;;;;23.40;101121.00;;;;2050260;28;20426;-68
2021/07/21 02:19:54;;;;;;;4.70;4.30;;;;;23.40;101114.00;;;;2050433;28;20537;-68
2021/07/21 02:20:57;;;;;;;5.13;3.40;;;;;23.40;101122.00;;;;2049926;28;20226;-68
2021/07/21 02:21:58;;;;;;;4.40;4.00;;;;;23.40;101124.00;;;;2058865;28;20222;-68
2021/07/21 02:22:58;;;;;;;3.93;3.53;;;;;23.40;101126.00;;;;2050236;28;20218;-68
2021/07/21 02:23:58;;;;;;;4.17;3.77;;;;;23.40;101114.00;;;;2050000;28;20456;-68
2021/07/21 02:24:59;;;;;;;4.40;4.00;;;;;23.40;101124.00;;;;2041973;29;20220;-68
2021/07/21 02:25:59;;;;;;;4.47;3.80;;;;;23.40;101119.00;;;;2042112;29;20221;-68
2021/07/21 02:27:00;;;;;;;4.30;3.90;;;;;23.40;101123.00;;;;2049994;28;20224;-68
2021/07/21 02:28:00;;;;;;;5.63;4.60;;;;;23.40;101124.00;;;;2050716;28;20224;-68
2021/07/21 02:29:00;;;;;;;3.90;3.60;;;;;23.40;101122.00;;;;2045125;29;20275;-68
2021/07/21 02:30:01;;;;;;;4.63;4.23;;;;;23.30;101116.00;;;;2046270;29;20251;-68
2021/07/21 02:31:04;;;;;;;4.40;4.00;;;;;23.30;101122.00;;;;2058047;28;20223;-68
2021/07/21 02:32:40;;;;;;;4.50;4.10;;;;;23.40;101123.00;;;;2042037;29;20231;-68
2021/07/21 02:33:47;;;;;;;4.68;3.83;;;;;23.40;101121.00;;;;2012963;29;20215;-69
2021/07/21 02:34:47;;;;;;;5.15;3.80;;;;;23.40;101115.00;;;;2008399;28;20226;-68
2021/07/21 02:35:48;;;;;;;4.50;4.10;;;;;23.40;101120.00;;;;2053749;28;20334;-68
2021/07/21 02:36:48;;;;;;;4.43;4.03;;;;;23.40;101119.00;;;;2060086;28;20310;-68
2021/07/21 02:37:49;;;;;;;4.10;3.80;;;;;23.40;101119.00;;;;2058429;28;20219;-68
2021/07/21 02:38:49;;;;;;;4.30;3.90;;;;;23.40;101122.00;;;;2059157;28;20223;-68
2021/07/21 02:39:50;;;;;;;5.23;4.37;;;;;23.40;101115.00;;;;2059103;28;20227;-68
2021/07/21 02:40:50;;;;;;;4.27;3.60;;;;;23.30;101126.00;;;;2058211;28;20732;-68
2021/07/21 02:41:50;;;;;;;4.10;3.80;;;;;23.30;101119.00;;;;2059051;28;20293;-68
2021/07/21 02:42:51;;;;;;;3.70;3.40;;;;;23.40;101118.00;;;;2058170;28;20715;-68
2021/07/21 02:43:52;;;;;;;4.00;3.70;;;;;23.40;101130.00;;;;2057862;28;20218;-68
2021/07/21 02:44:52;;;;;;;4.43;4.03;;;;;23.40;101128.00;;;;2057645;28;20464;-68
2021/07/21 02:45:53;;;;;;;4.57;4.17;;;;;23.30;101116.00;;;;2057893;28;20218;-68
2021/07/21 02:46:53;;;;;;;4.60;4.20;;;;;23.30;101125.00;;;;2057647;28;20218;-69
2021/07/21 02:47:54;;;;;;;4.20;3.80;;;;;23.40;101116.00;;;;2058819;28;20335;-68
2021/07/21 02:48:54;;;;;;;4.30;3.90;;;;;23.30;101118.00;;;;2059181;28;20211;-68
2021/07/21 02:49:54;;;;;;;5.07;4.67;;;;;23.40;101121.00;;;;2058918;28;21188;-68
2021/07/21 02:50:58;;;;;;;4.83;4.43;;;;;23.30;101116.00;;;;2049781;28;20684;-67
2021/07/21 02:52:10;;;;;;;4.40;4.00;;;;;23.30;101129.00;;;;2050185;28;20211;-68
2021/07/21 02:53:12;;;;;;;4.80;4.10;;;;;23.30;101119.00;;;;2049994;28;20295;-68
2021/07/21 02:54:53;;;;;;;4.07;3.75;;;;;23.30;101124.00;;;;2042960;28;20266;-68
2021/07/21 02:55:55;;;;;;;4.40;4.00;;;;;23.30;101123.00;;;;2054334;28;20224;-68
2021/07/21 02:56:59;;;;;;;4.28;3.88;;;;;23.30;101120.00;;;;2042264;29;20220;-68
2021/07/21 02:58:27;;;;;;;4.38;3.95;;;;;23.30;101125.00;;;;2033007;28;20221;-68
2021/07/21 02:59:40;;;;;;;4.20;3.80;;;;;23.40;101122.00;;;;2054021;28;20230;-68
2021/07/21 03:00:40;;;;;;;4.00;3.70;;;;;23.40;101115.00;;;;2049110;28;20222;-68
2021/07/21 03:01:45;;;;;;;4.50;4.10;;;;;23.40;101119.00;;;;2042290;29;20639;-68
2021/07/21 03:02:46;;;;;;;4.60;4.20;;;;;23.30;101114.00;;;;2046759;28;20231;-69
2021/07/21 03:03:48;;;;;;;4.20;3.80;;;;;23.30;101117.00;;;;2047096;28;20723;-68
2021/07/21 03:04:48;;;;;;;3.70;3.40;;;;;23.30;101116.00;;;;2039581;28;20593;-68
2021/07/21 03:05:49;;;;;;;4.10;3.70;;;;;23.30;101119.00;;;;2047084;28;20228;-68
2021/07/21 03:06:50;;;;;;;4.43;4.03;;;;;23.30;101125.00;;;;2054042;28;20721;-68
2021/07/21 03:07:55;;;;;;;3.40;3.10;;;;;23.30;101129.00;;;;2046237;28;20220;-68
2021/07/21 03:08:55;;;;;;;4.10;3.80;;;;;23.30;101124.00;;;;2043123;28;20411;-68
2021/07/21 03:09:56;;;;;;;4.30;3.90;;;;;23.30;101128.00;;;;2041938;29;20225;-68
2021/07/21 03:10:57;;;;;;;4.37;3.97;;;;;23.30;101133.00;;;;2033407;29;20237;-68
2021/07/21 03:11:58;;;;;;;4.40;3.97;;;;;23.30;101128.00;;;;2041776;29;20216;-68
2021/07/21 03:13:04;;;;;;;3.87;3.57;;;;;23.30;101125.00;;;;2034052;29;20835;-68
2021/07/21 03:14:05;;;;;;;3.60;3.30;;;;;23.30;101131.00;;;;2029033;29;20492;-68
2021/07/21 03:15:06;;;;;;;4.73;4.03;;;;;23.30;101127.00;;;;2034754;29;20224;-68
2021/07/21 03:16:07;;;;;;;4.50;4.10;;;;;23.30;101137.00;;;;2053049;28;20215;-68
2021/07/21 03:17:07;;;;;;;4.30;3.70;;;;;23.30;101124.00;;;;2058455;28;20581;-68
2021/07/21 03:18:17;;;;;;;3.97;3.63;;;;;23.30;101136.00;;;;2058288;28;20733;-68
2021/07/21 03:19:17;;;;;;;4.28;3.88;;;;;23.30;101132.00;;;;2049611;28;20267;-68
2021/07/21 03:20:17;;;;;;;3.93;3.63;;;;;23.30;101135.00;;;;2041623;29;20692;-68
2021/07/21 03:21:18;;;;;;;4.37;4.00;;;;;23.30;101131.00;;;;2050586;28;20252;-68
2021/07/21 03:22:20;;;;;;;5.13;4.13;;;;;23.30;101130.00;;;;2050500;28;20216;-68
2021/07/21 03:23:22;;;;;;;4.90;4.40;;;;;23.30;101129.00;;;;2042116;29;20472;-68
2021/07/21 03:24:23;;;;;;;3.95;3.65;;;;;23.30;101129.00;;;;2042062;28;20216;-68
2021/07/21 03:25:24;;;;;;;3.83;3.53;;;;;23.30;101135.00;;;;2041871;29;20267;-68
2021/07/21 03:26:24;;;;;;;5.37;4.10;;;;;23.30;101131.00;;;;2033885;29;20723;-68
2021/07/21 03:27:24;;;;;;;5.03;3.93;;;;;23.30;101137.00;;;;2041762;29;20743;-68
2021/07/21 03:28:24;;;;;;;3.93;3.63;;;;;23.30;101131.00;;;;2050990;28;20695;-68
2021/07/21 03:29:27;;;;;;;4.83;4.33;;;;;23.30;101131.00;;;;2051810;28;20718;-68
2021/07/21 03:30:27;;;;;;;4.63;4.22;;;;;23.30;101129.00;;;;2043327;29;20218;-68
2021/07/21 03:31:27;;;;;;;4.10;3.80;;;;;23.30;101137.00;;;;2028299;29;20240;-69
2021/07/21 03:32:28;;;;;;;4.40;4.00;;;;;23.30;101136.00;;;;2043131;29;20259;-68
2021/07/21 03:33:29;;;;;;;4.27;3.87;;;;;23.30;101139.00;;;;2051945;28;20220;-68
2021/07/21 03:34:29;;;;;;;4.40;4.00;;;;;23.30;101138.00;;;;2041260;28;21211;-68
2021/07/21 03:35:30;;;;;;;3.90;3.50;;;;;23.30;101143.00;;;;2051410;28;20714;-68
2021/07/21 03:36:35;;;;;;;4.00;3.60;;;;;23.30;101139.00;;;;2049560;28;20239;-68
2021/07/21 03:37:35;;;;;;;6.88;3.70;;;;;23.30;101138.00;;;;2035513;29;20707;-68
2021/07/21 03:38:35;;;;;;;4.30;3.90;;;;;23.30;101133.00;;;;2043205;29;20208;-69
2021/07/21 03:39:36;;;;;;;3.80;3.50;;;;;23.30;101147.00;;;;2050974;28;20256;-68
2021/07/21 03:40:36;;;;;;;4.23;3.83;;;;;23.30;101144.00;;;;2050492;28;20214;-68
2021/07/21 03:41:37;;;;;;;4.20;3.80;;;;;23.30;101145.00;;;;2051197;28;20207;-68
2021/07/21 03:42:37;;;;;;;4.37;3.97;;;;;23.30;101147.00;;;;2050984;28;20210;-67
2021/07/21 03:43:37;;;;;;;3.97;3.60;;;;;23.30;101135.00;;;;2043006;29;20634;-67
2021/07/21 03:44:38;;;;;;;4.03;3.70;;;;;23.30;101149.00;;;;2035708;29;20269;-67
2021/07/21 03:45:38;;;;;;;3.70;3.40;;;;;23.30;101152.00;;;;2035620;29;20246;-67
2021/07/21 03:46:39;;;;;;;4.00;3.70;;;;;23.30;101146.00;;;;2051506;28;20665;-67
2021/07/21 03:47:40;;;;;;;4.40;4.00;;;;;23.30;101145.00;;;;2051603;28;20722;-67
2021/07/21 03:48:41;;;;;;;4.33;3.60;;;;;23.30;101147.00;;;;2043146;29;20216;-67
2021/07/21 03:49:41;;;;;;;4.20;3.80;;;;;23.30;101151.00;;;;2042957;29;20460;-68
2021/07/21 03:50:41;;;;;;;4.00;3.60;;;;;23.30;101153.00;;;;2033839;29;20708;-68
2021/07/21 03:51:42;;;;;;;4.13;3.73;;;;;23.30;101143.00;;;;2042150;29;20940;-68
2021/07/21 03:52:43;;;;;;;3.73;3.43;;;;;23.30;101148.00;;;;2050436;28;20235;-68
2021/07/21 03:53:44;;;;;;;4.20;3.80;;;;;23.30;101144.00;;;;2051670;28;20713;-67
2021/07/21 03:54:46;;;;;;;4.00;3.70;;;;;23.30;101148.00;;;;2051427;28;20279;-67
2021/07/21 03:55:46;;;;;;;3.80;3.50;;;;;23.30;101152.00;;;;2043881;28;20294;-67
2021/07/21 03:56:47;;;;;;;3.70;3.30;;;;;23.30;101153.00;;;;2043473;29;20591;-67
2021/07/21 03:57:47;;;;;;;3.93;3.50;;;;;23.30;101151.00;;;;2050938;28;20705;-68
2021/07/21 03:58:47;;;;;;;4.03;3.73;;;;;23.30;101158.00;;;;2051024;28;20222;-68
2021/07/21 03:59:48;;;;;;;4.43;3.90;;;;;23.20;101156.00;;;;2050745;28;20219;-68
2021/07/21 04:00:48;;;;;;;3.83;3.43;;;;;23.30;101159.00;;;;2058819;28;20223;-67
2021/07/21 04:01:49;;;;;;;4.10;3.80;;;;;23.30;101157.00;;;;2051731;28;20267;-68
2021/07/21 04:02:56;;;;;;;4.10;3.53;;;;;23.20;101154.00;;;;2043432;29;20257;-68
2021/07/21 04:03:57;;;;;;;4.15;3.83;;;;;23.20;101157.00;;;;2049936;28;20224;-67
2021/07/21 04:04:57;;;;;;;4.20;3.77;;;;;23.20;101157.00;;;;2059328;28;20211;-68
2021/07/21 04:05:57;;;;;;;4.10;3.70;;;;;23.20;101153.00;;;;2048998;28;20220;-68
2021/07/21 04:06:57;;;;;;;3.67;3.37;;;;;23.20;101162.00;;;;2050818;28;20212;-68
2021/07/21 04:07:58;;;;;;;3.77;3.47;;;;;23.20;101157.00;;;;2046753;28;20356;-68
2021/07/21 04:09:03;;;;;;;4.60;4.20;;;;;23.20;101158.00;;;;2047126;28;20224;-68
2021/07/21 04:10:04;;;;;;;4.32;3.97;;;;;23.30;101160.00;;;;2044663;28;20870;-67
2021/07/21 04:11:04;;;;;;;4.57;4.18;;;;;23.20;101148.00;;;;2059101;28;20301;-67
2021/07/21 04:12:05;;;;;;;3.83;3.53;;;;;23.30;101155.00;;;;2043444;29;20221;-67
2021/07/21 04:13:05;;;;;;;5.80;3.87;;;;;23.20;101139.00;;;;2034886;29;20783;-68
2021/07/21 04:14:11;;;;;;;3.67;3.37;;;;;23.20;101150.00;;;;2050734;28;20211;-68
2021/07/21 04:15:11;;;;;;;4.97;3.95;;;;;23.20;101161.00;;;;2058974;28;20323;-67
2021/07/21 04:16:12;;;;;;;4.60;4.20;;;;;23.20;101150.00;;;;2043519;29;20217;-67
2021/07/21 04:17:13;;;;;;;3.80;3.50;;;;;23.20;101151.00;;;;2043557;29;20208;-67
2021/07/21 04:18:14;;;;;;;3.85;3.45;;;;;23.20;101150.00;;;;2043600;28;20217;-67
2021/07/21 04:19:15;;;;;;;4.07;3.67;;;;;23.20;101162.00;;;;2043670;28;20216;-67
2021/07/21 04:20:15;;;;;;;3.90;3.50;;;;;23.20;101154.00;;;;2042476;29;21299;-68
2021/07/21 04:21:16;;;;;;;3.90;3.50;;;;;23.20;101157.00;;;;2042728;29;20208;-68
2021/07/21 04:22:18;;;;;;;4.27;3.90;;;;;23.20;101151.00;;;;2050785;28;20822;-67
2021/07/21 04:23:19;;;;;;;4.10;3.70;;;;;23.20;101161.00;;;;2035194;29;20569;-67
2021/07/21 04:24:20;;;;;;;3.90;3.60;;;;;23.20;101162.00;;;;2035426;29;20222;-67
2021/07/21 04:25:21;;;;;;;4.38;4.00;;;;;23.30;101160.00;;;;2051606;28;20227;-68
2021/07/21 04:26:21;;;;;;;3.60;3.30;;;;;23.30;101156.00;;;;2043512;29;20235;-68
2021/07/21 04:27:21;;;;;;;3.83;3.53;;;;;23.30;101158.00;;;;2035694;29;20213;-68
2021/07/21 04:28:22;;;;;;;4.80;4.40;;;;;23.20;101160.00;;;;2050801;28;20323;-67
2021/07/21 04:29:24;;;;;;;4.23;3.83;;;;;23.30;101161.00;;;;2050501;28;20294;-67
2021/07/21 04:30:28;;;;;;;4.13;3.75;;;;;23.20;101163.00;;;;2050410;28;20219;-68
2021/07/21 04:31:29;;;;;;;6.03;3.78;;;;;23.30;101158.00;;;;2050809;28;20216;-68
2021/07/21 04:32:29;;;;;;;3.67;3.37;;;;;23.30;101159.00;;;;2043202;28;20225;-67
2021/07/21 04:33:29;;;;;;;3.60;3.30;;;;;23.30;101164.00;;;;2053098;28;20903;-67
2021/07/21 04:34:30;;;;;;;4.70;3.77;;;;;23.30;101159.00;;;;2051964;28;20212;-67
2021/07/21 04:35:30;;;;;;;4.20;3.87;;;;;23.30;101161.00;;;;2041563;29;20260;-67
2021/07/21 04:36:30;;;;;;;4.20;3.90;;;;;23.30;101164.00;;;;2048071;28;20211;-67
2021/07/21 04:37:31;;;;;;;3.90;3.50;;;;;23.30;101167.00;;;;2059251;28;20206;-67
2021/07/21 04:38:32;;;;;;;5.10;3.63;;;;;23.20;101171.00;;;;2058897;28;20745;-67
2021/07/21 04:39:32;;;;;;;3.73;3.43;;;;;23.30;101171.00;;;;2049625;28;20208;-67
2021/07/21 04:40:32;;;;;;;4.13;3.33;;;;;23.30;101170.00;;;;2042398;29;20247;-67
2021/07/21 04:41:33;;;;;;;3.90;3.50;;;;;23.30;101172.00;;;;2051479;28;20212;-67
2021/07/21 04:42:33;;;;;;;4.13;3.73;;;;;23.30;101167.00;;;;2043405;29;20225;-67
2021/07/21 04:43:34;;;;;;;3.63;3.33;;;;;23.30;101171.00;;;;2051318;28;20247;-67
2021/07/21 04:44:35;;;;;;;3.70;3.40;;;;;23.20;101178.00;;;;2059575;28;20221;-67
2021/07/21 04:45:41;;;;;;;5.28;3.55;;;;;23.20;101178.00;;;;2059042;28;20462;-67
2021/07/21 04:46:42;;;;;;;3.47;3.17;;;;;23.20;101180.00;;;;2049220;28;20691;-67
2021/07/21 04:47:42;;;;;;;3.77;3.30;;;;;23.20;101182.00;;;;2042881;28;20221;-67
2021/07/21 04:48:42;;;;;;;3.97;3.67;;;;;23.30;101182.00;;;;2043404;29;20249;-67
2021/07/21 04:49:43;;;;;;;3.90;3.60;;;;;23.30;101180.00;;;;2051278;28;20228;-67
2021/07/21 04:50:44;;;;;;;3.93;3.37;;;;;23.20;101183.00;;;;2050542;28;20664;-67
2021/07/21 04:51:46;;;;;;;3.83;3.50;;;;;23.30;101187.00;;;;2043119;29;20633;-67
2021/07/21 04:52:47;;;;;;;3.72;3.42;;;;;23.30;101188.00;;;;2034871;29;20495;-67
2021/07/21 04:53:47;;;;;;;5.32;3.83;;;;;23.30;101191.00;;;;2034728;29;20209;-68
2021/07/21 04:54:48;;;;;;;4.17;3.80;;;;;23.30;101190.00;;;;2034805;29;20693;-67
2021/07/21 04:55:48;;;;;;;3.50;3.20;;;;;23.30;101189.00;;;;2050477;28;20682;-68
2021/07/21 04:56:48;;;;;;;3.70;3.40;;;;;23.30;101192.00;;;;2059786;28;20274;-68
2021/07/21 04:57:49;;;;;;;3.67;3.37;;;;;23.30;101192.00;;;;2059610;28;20223;-68
2021/07/21 04:58:50;;;;;;;3.50;3.20;;;;;23.30;101191.00;;;;2059749;28;20222;-68
2021/07/21 04:59:50;;;;;;;4.07;3.77;;;;;23.30;101191.00;;;;2059397;28;20238;-68
2021/07/21 05:00:53;;;;;;;3.20;3.00;;;;;23.30;101191.00;;;;2058479;28;20215;-67
2021/07/21 05:01:53;;;;;;;3.80;3.50;;;;;23.30;101193.00;;;;2058844;28;20225;-67
2021/07/21 05:02:55;;;;;;;3.57;3.27;;;;;23.30;101195.00;;;;2051169;28;20243;-68
2021/07/21 05:03:57;;;;;;;4.30;3.90;;;;;23.30;101188.00;;;;2034329;29;20226;-68
2021/07/21 05:04:57;;;;;;;3.90;3.60;;;;;23.30;101196.00;;;;2045090;28;20273;-67
2021/07/21 05:05:57;;;;;;;3.93;3.60;;;;;23.20;101193.00;;;;2060143;28;20568;-67
2021/07/21 05:06:58;;;;;;;3.73;3.43;;;;;23.20;101193.00;;;;2051070;28;20679;-67
2021/07/21 05:07:58;;;;;;;4.00;3.60;;;;;23.20;101197.00;;;;2051045;28;20907;-67
2021/07/21 05:08:58;;;;;;;3.80;3.50;;;;;23.30;101199.00;;;;2058832;28;20720;-67
2021/07/21 05:09:59;;;;;;;3.67;3.33;;;;;23.10;101194.00;;;;2058891;28;20229;-67
2021/07/21 05:10:59;;;;;;;4.27;3.50;;;;;23.30;101192.00;;;;2058288;28;20214;-67